sensor_id;sensor_type;location;lat;lon;timestamp;P1;durP1;ratioP1;P2;durP2;ratioP2
47659;SDS011;33403;43.608;1.458;2022-07-23T00:01:17;3.17;;;2.60;;
47659;SDS011;33403;43.608;1.458;2022-07-23T00:03:43;4.53;;;2.80;;
47659;SDS011;33403;43.608;1.458;2022-07-23T00:06:09;5.28;;;2.75;;
47659;SDS011;33403;43.608;1.458;2022-07-23T00:08:35;4.85;;;2.50;;
47659;SDS011;33403;43.608;1.458;2022-07-23T00:11:01;4.43;;;2.72;;
47659;SDS011;33403;43.608;1.458;2022-07-23T00:13:27;6.63;;;2.80;;
47659;SDS011;33403;43.608;1.458;2022-07-23T00:15:53;3.55;;;2.60;;
47659;SDS011;33403;43.608;1.458;2022-07-23T00:18:20;4.25;;;2.90;;
47659;SDS011;33403;43.608;1.458;2022-07-23T00:20:46;4.70;;;2.88;;
47659;SDS011;33403;43.608;1.458;2022-07-23T00:23:12;3.38;;;2.53;;
47659;SDS011;33403;43.608;1.458;2022-07-23T00:25:39;6.32;;;3.05;;
47659;SDS011;33403;43.608;1.458;2022-07-23T00:28:05;4.68;;;3.17;;
47659;SDS011;33403;43.608;1.458;2022-07-23T00:30:31;3.95;;;2.80;;
47659;SDS011;33403;43.608;1.458;2022-07-23T00:33:02;3.58;;;2.55;;
47659;SDS011;33403;43.608;1.458;2022-07-23T00:35:29;3.95;;;3.00;;
47659;SDS011;33403;43.608;1.458;2022-07-23T00:37:56;5.28;;;2.65;;
47659;SDS011;33403;43.608;1.458;2022-07-23T00:40:22;5.10;;;2.85;;
47659;SDS011;33403;43.608;1.458;2022-07-23T00:42:48;7.50;;;3.15;;
47659;SDS011;33403;43.608;1.458;2022-07-23T00:45:15;5.82;;;3.35;;
47659;SDS011;33403;43.608;1.458;2022-07-23T00:47:41;4.47;;;2.53;;
47659;SDS011;33403;43.608;1.458;2022-07-23T00:50:07;5.65;;;2.95;;
47659;SDS011;33403;43.608;1.458;2022-07-23T00:52:34;8.43;;;3.20;;
47659;SDS011;33403;43.608;1.458;2022-07-23T00:55:01;7.30;;;3.22;;
47659;SDS011;33403;43.608;1.458;2022-07-23T00:57:27;4.20;;;2.85;;
47659;SDS011;33403;43.608;1.458;2022-07-23T00:59:53;5.40;;;2.80;;
47659;SDS011;33403;43.608;1.458;2022-07-23T01:02:19;7.20;;;3.30;;
47659;SDS011;33403;43.608;1.458;2022-07-23T01:04:45;3.80;;;3.22;;
47659;SDS011;33403;43.608;1.458;2022-07-23T01:07:11;4.60;;;3.10;;
47659;SDS011;33403;43.608;1.458;2022-07-23T01:09:37;5.00;;;3.38;;
47659;SDS011;33403;43.608;1.458;2022-07-23T01:12:03;5.68;;;3.20;;
47659;SDS011;33403;43.608;1.458;2022-07-23T01:14:30;4.50;;;3.20;;
47659;SDS011;33403;43.608;1.458;2022-07-23T01:16:56;4.65;;;3.17;;
47659;SDS011;33403;43.608;1.458;2022-07-23T01:19:22;3.60;;;3.13;;
47659;SDS011;33403;43.608;1.458;2022-07-23T01:21:49;3.90;;;3.00;;
47659;SDS011;33403;43.608;1.458;2022-07-23T01:24:16;5.65;;;3.25;;
47659;SDS011;33403;43.608;1.458;2022-07-23T01:26:44;4.80;;;3.20;;
47659;SDS011;33403;43.608;1.458;2022-07-23T01:29:10;4.05;;;2.95;;
47659;SDS011;33403;43.608;1.458;2022-07-23T01:31:37;7.45;;;3.15;;
47659;SDS011;33403;43.608;1.458;2022-07-23T01:34:03;4.88;;;2.90;;
47659;SDS011;33403;43.608;1.458;2022-07-23T01:36:29;4.68;;;3.20;;
47659;SDS011;33403;43.608;1.458;2022-07-23T01:38:55;5.95;;;3.05;;
47659;SDS011;33403;43.608;1.458;2022-07-23T01:41:21;4.70;;;3.30;;
47659;SDS011;33403;43.608;1.458;2022-07-23T01:43:47;6.63;;;3.17;;
47659;SDS011;33403;43.608;1.458;2022-07-23T01:46:13;5.60;;;3.03;;
47659;SDS011;33403;43.608;1.458;2022-07-23T01:48:40;4.65;;;2.80;;
47659;SDS011;33403;43.608;1.458;2022-07-23T01:51:06;6.05;;;3.17;;
47659;SDS011;33403;43.608;1.458;2022-07-23T01:53:32;3.72;;;3.20;;
47659;SDS011;33403;43.608;1.458;2022-07-23T01:55:58;4.97;;;3.10;;
47659;SDS011;33403;43.608;1.458;2022-07-23T01:58:25;4.82;;;3.38;;
47659;SDS011;33403;43.608;1.458;2022-07-23T02:00:52;5.80;;;3.08;;
47659;SDS011;33403;43.608;1.458;2022-07-23T02:03:18;7.63;;;3.20;;
47659;SDS011;33403;43.608;1.458;2022-07-23T02:05:44;5.07;;;3.10;;
47659;SDS011;33403;43.608;1.458;2022-07-23T02:08:10;4.53;;;3.03;;
47659;SDS011;33403;43.608;1.458;2022-07-23T02:10:36;4.63;;;3.17;;
47659;SDS011;33403;43.608;1.458;2022-07-23T02:13:02;4.38;;;3.28;;
47659;SDS011;33403;43.608;1.458;2022-07-23T02:15:28;6.30;;;3.30;;
47659;SDS011;33403;43.608;1.458;2022-07-23T02:17:55;6.57;;;3.40;;
47659;SDS011;33403;43.608;1.458;2022-07-23T02:20:21;5.93;;;3.13;;
47659;SDS011;33403;43.608;1.458;2022-07-23T02:22:47;4.43;;;2.75;;
47659;SDS011;33403;43.608;1.458;2022-07-23T02:25:13;5.38;;;2.95;;
47659;SDS011;33403;43.608;1.458;2022-07-23T02:27:39;4.32;;;3.22;;
47659;SDS011;33403;43.608;1.458;2022-07-23T02:30:05;4.97;;;2.97;;
47659;SDS011;33403;43.608;1.458;2022-07-23T02:32:31;6.18;;;3.20;;
47659;SDS011;33403;43.608;1.458;2022-07-23T02:34:57;5.07;;;3.22;;
47659;SDS011;33403;43.608;1.458;2022-07-23T02:37:23;5.75;;;3.20;;
47659;SDS011;33403;43.608;1.458;2022-07-23T02:39:49;3.95;;;3.08;;
47659;SDS011;33403;43.608;1.458;2022-07-23T02:42:16;4.65;;;3.13;;
47659;SDS011;33403;43.608;1.458;2022-07-23T02:44:42;6.78;;;3.20;;
47659;SDS011;33403;43.608;1.458;2022-07-23T02:47:09;6.95;;;3.60;;
47659;SDS011;33403;43.608;1.458;2022-07-23T02:49:35;4.82;;;3.20;;
47659;SDS011;33403;43.608;1.458;2022-07-23T02:52:01;5.90;;;3.38;;
47659;SDS011;33403;43.608;1.458;2022-07-23T02:54:27;6.95;;;3.35;;
47659;SDS011;33403;43.608;1.458;2022-07-23T02:56:53;4.43;;;3.00;;
47659;SDS011;33403;43.608;1.458;2022-07-23T02:59:19;5.95;;;3.03;;
47659;SDS011;33403;43.608;1.458;2022-07-23T03:01:45;6.80;;;3.13;;
47659;SDS011;33403;43.608;1.458;2022-07-23T03:04:11;4.75;;;3.00;;
47659;SDS011;33403;43.608;1.458;2022-07-23T03:06:37;5.07;;;2.83;;
47659;SDS011;33403;43.608;1.458;2022-07-23T03:09:05;4.57;;;3.20;;
47659;SDS011;33403;43.608;1.458;2022-07-23T03:11:31;4.72;;;3.03;;
47659;SDS011;33403;43.608;1.458;2022-07-23T03:13:57;6.50;;;3.38;;
47659;SDS011;33403;43.608;1.458;2022-07-23T03:16:23;4.03;;;3.17;;
47659;SDS011;33403;43.608;1.458;2022-07-23T03:18:49;6.18;;;3.38;;
47659;SDS011;33403;43.608;1.458;2022-07-23T03:21:15;6.43;;;3.15;;
47659;SDS011;33403;43.608;1.458;2022-07-23T03:23:42;5.65;;;3.38;;
47659;SDS011;33403;43.608;1.458;2022-07-23T03:26:08;6.20;;;3.33;;
47659;SDS011;33403;43.608;1.458;2022-07-23T03:28:34;7.68;;;3.63;;
47659;SDS011;33403;43.608;1.458;2022-07-23T03:31:00;6.85;;;3.28;;
47659;SDS011;33403;43.608;1.458;2022-07-23T03:33:26;5.22;;;3.10;;
47659;SDS011;33403;43.608;1.458;2022-07-23T03:35:52;5.45;;;3.40;;
47659;SDS011;33403;43.608;1.458;2022-07-23T03:38:18;5.60;;;3.45;;
47659;SDS011;33403;43.608;1.458;2022-07-23T03:40:44;5.35;;;3.55;;
47659;SDS011;33403;43.608;1.458;2022-07-23T03:43:10;5.95;;;3.40;;
47659;SDS011;33403;43.608;1.458;2022-07-23T03:45:36;6.70;;;3.80;;
47659;SDS011;33403;43.608;1.458;2022-07-23T03:48:02;4.93;;;3.25;;
47659;SDS011;33403;43.608;1.458;2022-07-23T03:50:28;6.50;;;3.53;;
47659;SDS011;33403;43.608;1.458;2022-07-23T03:52:54;4.78;;;3.28;;
47659;SDS011;33403;43.608;1.458;2022-07-23T03:55:20;6.25;;;3.50;;
47659;SDS011;33403;43.608;1.458;2022-07-23T03:57:46;9.70;;;3.83;;
47659;SDS011;33403;43.608;1.458;2022-07-23T04:00:13;6.80;;;3.90;;
47659;SDS011;33403;43.608;1.458;2022-07-23T04:02:39;5.60;;;3.50;;
47659;SDS011;33403;43.608;1.458;2022-07-23T04:05:05;6.72;;;3.58;;
47659;SDS011;33403;43.608;1.458;2022-07-23T04:07:31;3.90;;;3.40;;
47659;SDS011;33403;43.608;1.458;2022-07-23T04:09:57;7.00;;;3.58;;
47659;SDS011;33403;43.608;1.458;2022-07-23T04:12:23;7.47;;;3.90;;
47659;SDS011;33403;43.608;1.458;2022-07-23T04:14:49;5.47;;;3.47;;
47659;SDS011;33403;43.608;1.458;2022-07-23T04:17:16;7.15;;;3.90;;
47659;SDS011;33403;43.608;1.458;2022-07-23T04:19:42;7.70;;;4.00;;
47659;SDS011;33403;43.608;1.458;2022-07-23T04:22:09;3.90;;;3.50;;
47659;SDS011;33403;43.608;1.458;2022-07-23T04:24:35;8.65;;;3.60;;
47659;SDS011;33403;43.608;1.458;2022-07-23T04:27:02;6.25;;;3.90;;
47659;SDS011;33403;43.608;1.458;2022-07-23T04:29:28;6.00;;;3.42;;
47659;SDS011;33403;43.608;1.458;2022-07-23T04:31:54;5.10;;;3.20;;
47659;SDS011;33403;43.608;1.458;2022-07-23T04:34:20;5.55;;;3.95;;
47659;SDS011;33403;43.608;1.458;2022-07-23T04:36:46;8.95;;;3.55;;
47659;SDS011;33403;43.608;1.458;2022-07-23T04:39:12;5.97;;;3.50;;
47659;SDS011;33403;43.608;1.458;2022-07-23T04:41:39;4.88;;;3.60;;
47659;SDS011;33403;43.608;1.458;2022-07-23T04:44:05;6.85;;;3.75;;
47659;SDS011;33403;43.608;1.458;2022-07-23T04:46:31;6.13;;;3.67;;
47659;SDS011;33403;43.608;1.458;2022-07-23T04:48:57;5.90;;;3.67;;
47659;SDS011;33403;43.608;1.458;2022-07-23T04:51:23;6.90;;;3.63;;
47659;SDS011;33403;43.608;1.458;2022-07-23T04:53:49;5.78;;;3.67;;
47659;SDS011;33403;43.608;1.458;2022-07-23T04:56:15;4.50;;;3.53;;
47659;SDS011;33403;43.608;1.458;2022-07-23T04:58:41;7.75;;;3.70;;
47659;SDS011;33403;43.608;1.458;2022-07-23T05:01:07;6.82;;;3.97;;
47659;SDS011;33403;43.608;1.458;2022-07-23T05:03:33;7.85;;;3.70;;
47659;SDS011;33403;43.608;1.458;2022-07-23T05:05:59;6.47;;;3.80;;
47659;SDS011;33403;43.608;1.458;2022-07-23T05:08:26;7.80;;;3.70;;
47659;SDS011;33403;43.608;1.458;2022-07-23T05:10:52;8.13;;;3.65;;
47659;SDS011;33403;43.608;1.458;2022-07-23T05:13:18;5.75;;;3.58;;
47659;SDS011;33403;43.608;1.458;2022-07-23T05:15:44;5.82;;;3.45;;
47659;SDS011;33403;43.608;1.458;2022-07-23T05:18:10;5.22;;;3.55;;
47659;SDS011;33403;43.608;1.458;2022-07-23T05:20:36;6.68;;;3.60;;
47659;SDS011;33403;43.608;1.458;2022-07-23T05:23:03;6.28;;;3.08;;
47659;SDS011;33403;43.608;1.458;2022-07-23T05:25:29;5.43;;;3.35;;
47659;SDS011;33403;43.608;1.458;2022-07-23T05:27:55;6.07;;;3.10;;
47659;SDS011;33403;43.608;1.458;2022-07-23T05:30:21;4.38;;;2.88;;
47659;SDS011;33403;43.608;1.458;2022-07-23T05:32:47;6.35;;;3.28;;
47659;SDS011;33403;43.608;1.458;2022-07-23T05:35:13;6.50;;;3.47;;
47659;SDS011;33403;43.608;1.458;2022-07-23T05:37:39;6.13;;;3.45;;
47659;SDS011;33403;43.608;1.458;2022-07-23T05:40:06;5.45;;;3.38;;
47659;SDS011;33403;43.608;1.458;2022-07-23T05:42:36;4.35;;;2.90;;
47659;SDS011;33403;43.608;1.458;2022-07-23T05:45:02;7.38;;;3.33;;
47659;SDS011;33403;43.608;1.458;2022-07-23T05:47:29;6.22;;;3.08;;
47659;SDS011;33403;43.608;1.458;2022-07-23T05:50:04;7.50;;;3.22;;
47659;SDS011;33403;43.608;1.458;2022-07-23T05:52:30;5.85;;;3.15;;
47659;SDS011;33403;43.608;1.458;2022-07-23T05:54:56;4.88;;;2.92;;
47659;SDS011;33403;43.608;1.458;2022-07-23T05:57:22;7.47;;;3.55;;
47659;SDS011;33403;43.608;1.458;2022-07-23T05:59:48;6.70;;;3.10;;
47659;SDS011;33403;43.608;1.458;2022-07-23T06:02:14;6.28;;;3.00;;
47659;SDS011;33403;43.608;1.458;2022-07-23T06:04:40;5.78;;;3.35;;
47659;SDS011;33403;43.608;1.458;2022-07-23T06:07:07;5.20;;;2.83;;
47659;SDS011;33403;43.608;1.458;2022-07-23T06:09:33;5.47;;;3.25;;
47659;SDS011;33403;43.608;1.458;2022-07-23T06:11:59;6.57;;;3.40;;
47659;SDS011;33403;43.608;1.458;2022-07-23T06:14:25;6.88;;;3.05;;
47659;SDS011;33403;43.608;1.458;2022-07-23T06:16:51;4.85;;;3.03;;
47659;SDS011;33403;43.608;1.458;2022-07-23T06:19:17;6.70;;;3.25;;
47659;SDS011;33403;43.608;1.458;2022-07-23T06:21:43;3.80;;;2.67;;
47659;SDS011;33403;43.608;1.458;2022-07-23T06:24:09;4.70;;;3.15;;
47659;SDS011;33403;43.608;1.458;2022-07-23T06:26:35;4.78;;;2.95;;
47659;SDS011;33403;43.608;1.458;2022-07-23T06:29:01;4.45;;;2.80;;
47659;SDS011;33403;43.608;1.458;2022-07-23T06:31:27;4.07;;;2.70;;
47659;SDS011;33403;43.608;1.458;2022-07-23T06:33:53;7.80;;;3.05;;
47659;SDS011;33403;43.608;1.458;2022-07-23T06:36:20;4.18;;;2.63;;
47659;SDS011;33403;43.608;1.458;2022-07-23T06:38:46;6.72;;;3.13;;
47659;SDS011;33403;43.608;1.458;2022-07-23T06:41:12;5.68;;;3.00;;
47659;SDS011;33403;43.608;1.458;2022-07-23T06:43:38;5.00;;;3.08;;
47659;SDS011;33403;43.608;1.458;2022-07-23T06:46:04;3.45;;;2.75;;
47659;SDS011;33403;43.608;1.458;2022-07-23T06:48:30;4.38;;;3.00;;
47659;SDS011;33403;43.608;1.458;2022-07-23T06:50:56;5.38;;;3.10;;
47659;SDS011;33403;43.608;1.458;2022-07-23T06:53:22;3.72;;;2.60;;
47659;SDS011;33403;43.608;1.458;2022-07-23T06:55:48;4.53;;;3.03;;
47659;SDS011;33403;43.608;1.458;2022-07-23T06:58:14;3.85;;;2.53;;
47659;SDS011;33403;43.608;1.458;2022-07-23T07:00:40;3.72;;;2.53;;
47659;SDS011;33403;43.608;1.458;2022-07-23T07:03:06;2.92;;;2.63;;
47659;SDS011;33403;43.608;1.458;2022-07-23T07:05:32;5.70;;;2.88;;
47659;SDS011;33403;43.608;1.458;2022-07-23T07:07:58;3.83;;;2.75;;
47659;SDS011;33403;43.608;1.458;2022-07-23T07:10:24;3.80;;;2.70;;
47659;SDS011;33403;43.608;1.458;2022-07-23T07:12:50;4.47;;;2.58;;
47659;SDS011;33403;43.608;1.458;2022-07-23T07:15:16;4.03;;;2.33;;
47659;SDS011;33403;43.608;1.458;2022-07-23T07:17:42;5.30;;;2.63;;
47659;SDS011;33403;43.608;1.458;2022-07-23T07:20:09;5.30;;;2.50;;
47659;SDS011;33403;43.608;1.458;2022-07-23T07:22:35;4.13;;;2.67;;
47659;SDS011;33403;43.608;1.458;2022-07-23T07:25:01;3.97;;;2.80;;
47659;SDS011;33403;43.608;1.458;2022-07-23T07:27:27;4.18;;;2.80;;
47659;SDS011;33403;43.608;1.458;2022-07-23T07:29:53;3.45;;;2.50;;
47659;SDS011;33403;43.608;1.458;2022-07-23T07:32:19;2.92;;;2.42;;
47659;SDS011;33403;43.608;1.458;2022-07-23T07:34:45;3.58;;;2.60;;
47659;SDS011;33403;43.608;1.458;2022-07-23T07:37:11;5.35;;;2.90;;
47659;SDS011;33403;43.608;1.458;2022-07-23T07:39:37;5.05;;;2.50;;
47659;SDS011;33403;43.608;1.458;2022-07-23T07:42:03;5.85;;;2.92;;
47659;SDS011;33403;43.608;1.458;2022-07-23T07:44:29;4.20;;;2.67;;
47659;SDS011;33403;43.608;1.458;2022-07-23T07:46:55;3.58;;;2.60;;
47659;SDS011;33403;43.608;1.458;2022-07-23T07:49:22;4.53;;;2.30;;
47659;SDS011;33403;43.608;1.458;2022-07-23T07:51:48;3.17;;;2.30;;
47659;SDS011;33403;43.608;1.458;2022-07-23T07:54:14;4.68;;;2.72;;
47659;SDS011;33403;43.608;1.458;2022-07-23T07:56:40;4.22;;;2.47;;
47659;SDS011;33403;43.608;1.458;2022-07-23T07:59:06;4.30;;;2.78;;
47659;SDS011;33403;43.608;1.458;2022-07-23T08:01:32;4.07;;;2.88;;
47659;SDS011;33403;43.608;1.458;2022-07-23T08:03:59;5.50;;;3.08;;
47659;SDS011;33403;43.608;1.458;2022-07-23T08:06:25;6.43;;;2.50;;
47659;SDS011;33403;43.608;1.458;2022-07-23T08:08:51;4.40;;;2.60;;
47659;SDS011;33403;43.608;1.458;2022-07-23T08:11:17;5.30;;;2.47;;
47659;SDS011;33403;43.608;1.458;2022-07-23T08:13:43;7.47;;;2.60;;
47659;SDS011;33403;43.608;1.458;2022-07-23T08:16:11;6.63;;;2.90;;
47659;SDS011;33403;43.608;1.458;2022-07-23T08:18:37;3.97;;;2.55;;
47659;SDS011;33403;43.608;1.458;2022-07-23T08:21:04;4.57;;;2.45;;
47659;SDS011;33403;43.608;1.458;2022-07-23T08:23:30;4.28;;;2.67;;
47659;SDS011;33403;43.608;1.458;2022-07-23T08:25:57;3.47;;;2.35;;
47659;SDS011;33403;43.608;1.458;2022-07-23T08:28:24;2.92;;;2.45;;
47659;SDS011;33403;43.608;1.458;2022-07-23T08:30:50;4.50;;;2.85;;
47659;SDS011;33403;43.608;1.458;2022-07-23T08:33:17;5.72;;;2.40;;
47659;SDS011;33403;43.608;1.458;2022-07-23T08:35:44;5.63;;;2.72;;
47659;SDS011;33403;43.608;1.458;2022-07-23T08:38:12;2.50;;;2.30;;
47659;SDS011;33403;43.608;1.458;2022-07-23T08:40:45;4.28;;;2.83;;
47659;SDS011;33403;43.608;1.458;2022-07-23T08:43:15;3.55;;;2.25;;
47659;SDS011;33403;43.608;1.458;2022-07-23T08:45:42;3.45;;;2.17;;
47659;SDS011;33403;43.608;1.458;2022-07-23T08:48:11;3.05;;;2.50;;
47659;SDS011;33403;43.608;1.458;2022-07-23T08:50:37;3.90;;;2.50;;
47659;SDS011;33403;43.608;1.458;2022-07-23T08:53:06;3.13;;;2.38;;
47659;SDS011;33403;43.608;1.458;2022-07-23T08:55:32;5.28;;;2.38;;
47659;SDS011;33403;43.608;1.458;2022-07-23T08:57:59;5.68;;;2.55;;
47659;SDS011;33403;43.608;1.458;2022-07-23T09:00:25;4.40;;;2.40;;
47659;SDS011;33403;43.608;1.458;2022-07-23T09:02:52;3.45;;;2.33;;
47659;SDS011;33403;43.608;1.458;2022-07-23T09:05:18;4.53;;;2.45;;
47659;SDS011;33403;43.608;1.458;2022-07-23T09:08:06;3.53;;;1.95;;
47659;SDS011;33403;43.608;1.458;2022-07-23T09:11:16;2.70;;;1.98;;
47659;SDS011;33403;43.608;1.458;2022-07-23T09:16:07;3.15;;;2.00;;
47659;SDS011;33403;43.608;1.458;2022-07-23T09:21:06;4.07;;;2.13;;
47659;SDS011;33403;43.608;1.458;2022-07-23T09:23:39;3.80;;;2.08;;
47659;SDS011;33403;43.608;1.458;2022-07-23T09:26:22;2.35;;;1.92;;
47659;SDS011;33403;43.608;1.458;2022-07-23T09:28:52;2.55;;;1.92;;
47659;SDS011;33403;43.608;1.458;2022-07-23T09:31:19;2.45;;;1.80;;
47659;SDS011;33403;43.608;1.458;2022-07-23T09:33:45;2.70;;;2.00;;
47659;SDS011;33403;43.608;1.458;2022-07-23T09:36:11;3.30;;;1.80;;
47659;SDS011;33403;43.608;1.458;2022-07-23T09:38:48;1.92;;;1.70;;
47659;SDS011;33403;43.608;1.458;2022-07-23T09:41:15;4.53;;;1.80;;
47659;SDS011;33403;43.608;1.458;2022-07-23T09:43:41;3.03;;;1.98;;
47659;SDS011;33403;43.608;1.458;2022-07-23T09:46:26;2.95;;;1.92;;
47659;SDS011;33403;43.608;1.458;2022-07-23T09:48:53;2.60;;;1.73;;
47659;SDS011;33403;43.608;1.458;2022-07-23T09:51:22;3.10;;;1.88;;
47659;SDS011;33403;43.608;1.458;2022-07-23T09:53:55;2.47;;;1.60;;
47659;SDS011;33403;43.608;1.458;2022-07-23T09:56:21;3.88;;;1.90;;
47659;SDS011;33403;43.608;1.458;2022-07-23T09:58:49;3.38;;;1.70;;
47659;SDS011;33403;43.608;1.458;2022-07-23T10:01:36;2.75;;;1.80;;
47659;SDS011;33403;43.608;1.458;2022-07-23T10:04:02;2.80;;;1.95;;
47659;SDS011;33403;43.608;1.458;2022-07-23T10:06:28;2.63;;;1.60;;
47659;SDS011;33403;43.608;1.458;2022-07-23T10:08:56;3.28;;;1.95;;
47659;SDS011;33403;43.608;1.458;2022-07-23T10:11:24;2.10;;;1.77;;
47659;SDS011;33403;43.608;1.458;2022-07-23T10:13:50;4.32;;;2.00;;
47659;SDS011;33403;43.608;1.458;2022-07-23T10:16:19;3.53;;;1.70;;
47659;SDS011;33403;43.608;1.458;2022-07-23T10:18:46;2.78;;;1.80;;
47659;SDS011;33403;43.608;1.458;2022-07-23T10:21:12;2.25;;;1.50;;
47659;SDS011;33403;43.608;1.458;2022-07-23T10:23:45;1.67;;;1.40;;
47659;SDS011;33403;43.608;1.458;2022-07-23T10:34:15;2.00;;;1.48;;
47659;SDS011;33403;43.608;1.458;2022-07-23T10:39:28;1.88;;;1.30;;
47659;SDS011;33403;43.608;1.458;2022-07-23T10:42:07;1.58;;;1.20;;
47659;SDS011;33403;43.608;1.458;2022-07-23T10:44:52;1.75;;;1.20;;
47659;SDS011;33403;43.608;1.458;2022-07-23T10:47:28;1.55;;;1.27;;
47659;SDS011;33403;43.608;1.458;2022-07-23T10:58:03;2.45;;;1.40;;
47659;SDS011;33403;43.608;1.458;2022-07-23T11:00:34;2.03;;;1.20;;
47659;SDS011;33403;43.608;1.458;2022-07-23T11:03:01;2.20;;;1.30;;
47659;SDS011;33403;43.608;1.458;2022-07-23T11:10:32;1.95;;;1.27;;
47659;SDS011;33403;43.608;1.458;2022-07-23T11:24:03;1.67;;;1.00;;
47659;SDS011;33403;43.608;1.458;2022-07-23T11:26:46;2.97;;;1.30;;
47659;SDS011;33403;43.608;1.458;2022-07-23T11:31:55;1.77;;;0.98;;
47659;SDS011;33403;43.608;1.458;2022-07-23T11:34:28;1.15;;;1.05;;
47659;SDS011;33403;43.608;1.458;2022-07-23T11:36:55;1.80;;;1.10;;
47659;SDS011;33403;43.608;1.458;2022-07-23T11:39:21;2.15;;;1.10;;
47659;SDS011;33403;43.608;1.458;2022-07-23T11:41:50;1.10;;;1.00;;
47659;SDS011;33403;43.608;1.458;2022-07-23T11:44:26;2.42;;;1.40;;
47659;SDS011;33403;43.608;1.458;2022-07-23T11:46:56;1.75;;;1.38;;
47659;SDS011;33403;43.608;1.458;2022-07-23T11:49:23;1.45;;;1.30;;
47659;SDS011;33403;43.608;1.458;2022-07-23T11:54:30;1.67;;;1.30;;
47659;SDS011;33403;43.608;1.458;2022-07-23T11:56:57;1.58;;;1.05;;
47659;SDS011;33403;43.608;1.458;2022-07-23T11:59:23;3.58;;;1.52;;
47659;SDS011;33403;43.608;1.458;2022-07-23T12:01:56;2.03;;;1.65;;
47659;SDS011;33403;43.608;1.458;2022-07-23T12:04:24;2.50;;;1.40;;
47659;SDS011;33403;43.608;1.458;2022-07-23T12:06:50;2.03;;;1.50;;
47659;SDS011;33403;43.608;1.458;2022-07-23T12:09:16;2.47;;;1.40;;
47659;SDS011;33403;43.608;1.458;2022-07-23T12:14:46;3.22;;;1.80;;
47659;SDS011;33403;43.608;1.458;2022-07-23T12:17:12;3.38;;;2.00;;
47659;SDS011;33403;43.608;1.458;2022-07-23T12:19:38;2.88;;;1.60;;
47659;SDS011;33403;43.608;1.458;2022-07-23T12:22:05;2.08;;;1.40;;
47659;SDS011;33403;43.608;1.458;2022-07-23T12:24:31;2.30;;;1.83;;
47659;SDS011;33403;43.608;1.458;2022-07-23T12:27:19;2.38;;;1.77;;
47659;SDS011;33403;43.608;1.458;2022-07-23T12:29:45;3.20;;;1.83;;
47659;SDS011;33403;43.608;1.458;2022-07-23T12:32:18;1.65;;;1.55;;
47659;SDS011;33403;43.608;1.458;2022-07-23T12:34:45;2.67;;;1.70;;
47659;SDS011;33403;43.608;1.458;2022-07-23T12:39:56;2.72;;;1.98;;
47659;SDS011;33403;43.608;1.458;2022-07-23T12:42:22;3.05;;;2.00;;
47659;SDS011;33403;43.608;1.458;2022-07-23T12:45:08;2.90;;;1.73;;
47659;SDS011;33403;43.608;1.458;2022-07-23T12:47:52;2.20;;;1.85;;
47659;SDS011;33403;43.608;1.458;2022-07-23T12:50:35;2.53;;;2.10;;
47659;SDS011;33403;43.608;1.458;2022-07-23T12:53:02;2.08;;;1.70;;
47659;SDS011;33403;43.608;1.458;2022-07-23T12:55:29;4.13;;;2.15;;
47659;SDS011;33403;43.608;1.458;2022-07-23T12:58:02;2.75;;;2.42;;
47659;SDS011;33403;43.608;1.458;2022-07-23T13:00:29;3.45;;;2.38;;
47659;SDS011;33403;43.608;1.458;2022-07-23T13:02:56;4.03;;;2.40;;
47659;SDS011;33403;43.608;1.458;2022-07-23T13:05:22;3.40;;;2.33;;
47659;SDS011;33403;43.608;1.458;2022-07-23T13:07:48;3.33;;;2.58;;
47659;SDS011;33403;43.608;1.458;2022-07-23T13:10:14;4.55;;;2.30;;
47659;SDS011;33403;43.608;1.458;2022-07-23T13:12:40;3.22;;;2.45;;
47659;SDS011;33403;43.608;1.458;2022-07-23T13:15:06;3.83;;;2.20;;
47659;SDS011;33403;43.608;1.458;2022-07-23T13:17:32;5.20;;;3.03;;
47659;SDS011;33403;43.608;1.458;2022-07-23T13:19:58;4.30;;;2.67;;
47659;SDS011;33403;43.608;1.458;2022-07-23T13:22:24;3.63;;;2.40;;
47659;SDS011;33403;43.608;1.458;2022-07-23T13:24:50;4.75;;;3.17;;
47659;SDS011;33403;43.608;1.458;2022-07-23T13:27:17;3.83;;;2.70;;
47659;SDS011;33403;43.608;1.458;2022-07-23T13:29:43;4.15;;;2.20;;
47659;SDS011;33403;43.608;1.458;2022-07-23T13:32:09;3.92;;;2.50;;
47659;SDS011;33403;43.608;1.458;2022-07-23T13:34:35;2.85;;;2.42;;
47659;SDS011;33403;43.608;1.458;2022-07-23T13:37:01;4.03;;;2.88;;
47659;SDS011;33403;43.608;1.458;2022-07-23T13:39:27;4.72;;;2.67;;
47659;SDS011;33403;43.608;1.458;2022-07-23T13:41:53;4.10;;;2.60;;
47659;SDS011;33403;43.608;1.458;2022-07-23T13:44:19;5.32;;;2.95;;
47659;SDS011;33403;43.608;1.458;2022-07-23T13:46:45;3.92;;;2.58;;
47659;SDS011;33403;43.608;1.458;2022-07-23T13:49:11;3.97;;;2.92;;
47659;SDS011;33403;43.608;1.458;2022-07-23T13:51:37;4.57;;;3.08;;
47659;SDS011;33403;43.608;1.458;2022-07-23T13:54:03;4.38;;;3.50;;
47659;SDS011;33403;43.608;1.458;2022-07-23T13:56:29;5.35;;;3.60;;
47659;SDS011;33403;43.608;1.458;2022-07-23T13:58:56;5.75;;;3.72;;
47659;SDS011;33403;43.608;1.458;2022-07-23T14:01:22;5.03;;;3.78;;
47659;SDS011;33403;43.608;1.458;2022-07-23T14:03:48;4.03;;;3.25;;
47659;SDS011;33403;43.608;1.458;2022-07-23T14:06:14;4.78;;;3.00;;
47659;SDS011;33403;43.608;1.458;2022-07-23T14:08:40;4.43;;;3.53;;
47659;SDS011;33403;43.608;1.458;2022-07-23T14:11:06;6.30;;;3.25;;
47659;SDS011;33403;43.608;1.458;2022-07-23T14:13:32;3.92;;;2.85;;
47659;SDS011;33403;43.608;1.458;2022-07-23T14:15:58;3.50;;;2.70;;
47659;SDS011;33403;43.608;1.458;2022-07-23T14:18:24;4.55;;;3.00;;
47659;SDS011;33403;43.608;1.458;2022-07-23T14:20:50;4.93;;;2.80;;
47659;SDS011;33403;43.608;1.458;2022-07-23T14:23:16;4.45;;;2.80;;
47659;SDS011;33403;43.608;1.458;2022-07-23T14:25:42;4.95;;;2.95;;
47659;SDS011;33403;43.608;1.458;2022-07-23T14:28:08;3.75;;;2.85;;
47659;SDS011;33403;43.608;1.458;2022-07-23T14:30:34;3.40;;;2.60;;
47659;SDS011;33403;43.608;1.458;2022-07-23T14:33:00;4.32;;;2.83;;
47659;SDS011;33403;43.608;1.458;2022-07-23T14:35:26;3.63;;;2.85;;
47659;SDS011;33403;43.608;1.458;2022-07-23T14:37:52;5.93;;;2.63;;
47659;SDS011;33403;43.608;1.458;2022-07-23T14:40:18;3.97;;;2.63;;
47659;SDS011;33403;43.608;1.458;2022-07-23T14:42:44;3.40;;;2.90;;
47659;SDS011;33403;43.608;1.458;2022-07-23T14:45:10;3.50;;;2.63;;
47659;SDS011;33403;43.608;1.458;2022-07-23T14:47:36;4.63;;;2.92;;
47659;SDS011;33403;43.608;1.458;2022-07-23T14:50:02;4.15;;;2.97;;
47659;SDS011;33403;43.608;1.458;2022-07-23T14:52:29;3.72;;;3.08;;
47659;SDS011;33403;43.608;1.458;2022-07-23T14:54:55;3.47;;;3.05;;
47659;SDS011;33403;43.608;1.458;2022-07-23T14:57:21;4.40;;;3.00;;
47659;SDS011;33403;43.608;1.458;2022-07-23T14:59:47;7.82;;;3.40;;
47659;SDS011;33403;43.608;1.458;2022-07-23T15:02:13;3.42;;;2.97;;
47659;SDS011;33403;43.608;1.458;2022-07-23T15:04:39;5.45;;;3.42;;
47659;SDS011;33403;43.608;1.458;2022-07-23T15:07:05;5.65;;;3.20;;
47659;SDS011;33403;43.608;1.458;2022-07-23T15:09:31;4.50;;;3.35;;
47659;SDS011;33403;43.608;1.458;2022-07-23T15:11:58;3.92;;;2.90;;
47659;SDS011;33403;43.608;1.458;2022-07-23T15:14:24;4.75;;;3.20;;
47659;SDS011;33403;43.608;1.458;2022-07-23T15:16:50;4.70;;;3.38;;
47659;SDS011;33403;43.608;1.458;2022-07-23T15:19:16;5.47;;;3.40;;
47659;SDS011;33403;43.608;1.458;2022-07-23T15:21:42;4.35;;;3.38;;
47659;SDS011;33403;43.608;1.458;2022-07-23T15:24:08;5.80;;;3.40;;
47659;SDS011;33403;43.608;1.458;2022-07-23T15:26:34;3.60;;;2.67;;
47659;SDS011;33403;43.608;1.458;2022-07-23T15:29:00;3.10;;;2.80;;
47659;SDS011;33403;43.608;1.458;2022-07-23T15:31:27;5.53;;;3.38;;
47659;SDS011;33403;43.608;1.458;2022-07-23T15:33:54;5.10;;;3.10;;
47659;SDS011;33403;43.608;1.458;2022-07-23T15:36:20;4.43;;;3.28;;
47659;SDS011;33403;43.608;1.458;2022-07-23T15:38:46;3.33;;;2.95;;